sensor_id;sensor_type;location;lat;lon;timestamp;pressure;altitude;pressure_sealevel;temperature;humidity
24031;BME280;12240;51.142;22.486;2023-05-19T00:01:16;100340.44;;;9.18;100.00
24031;BME280;12240;51.142;22.486;2023-05-19T00:03:58;100332.22;;;9.21;100.00
24031;BME280;12240;51.142;22.486;2023-05-19T00:06:31;100331.97;;;9.24;100.00
24031;BME280;12240;51.142;22.486;2023-05-19T00:09:05;100334.41;;;9.16;100.00
24031;BME280;12240;51.142;22.486;2023-05-19T00:11:37;100340.31;;;9.19;100.00
24031;BME280;12240;51.142;22.486;2023-05-19T00:14:07;100340.66;;;9.26;100.00
24031;BME280;12240;51.142;22.486;2023-05-19T00:16:37;100343.81;;;9.31;100.00
24031;BME280;12240;51.142;22.486;2023-05-19T00:19:06;100328.34;;;9.36;100.00
24031;BME280;12240;51.142;22.486;2023-05-19T00:21:37;100337.03;;;9.27;100.00
24031;BME280;12240;51.142;22.486;2023-05-19T00:24:06;100333.06;;;9.32;100.00
24031;BME280;12240;51.142;22.486;2023-05-19T00:26:34;100334.75;;;9.33;100.00
24031;BME280;12240;51.142;22.486;2023-05-19T00:29:05;100335.34;;;9.26;100.00
24031;BME280;12240;51.142;22.486;2023-05-19T00:31:33;100330.19;;;9.35;100.00
24031;BME280;12240;51.142;22.486;2023-05-19T00:34:01;100331.00;;;9.36;100.00
24031;BME280;12240;51.142;22.486;2023-05-19T00:36:29;100330.75;;;9.39;100.00
24031;BME280;12240;51.142;22.486;2023-05-19T00:38:58;100326.91;;;9.32;100.00
24031;BME280;12240;51.142;22.486;2023-05-19T00:41:26;100330.88;;;9.37;100.00
24031;BME280;12240;51.142;22.486;2023-05-19T00:43:54;100328.00;;;9.40;100.00
24031;BME280;12240;51.142;22.486;2023-05-19T00:46:22;100332.34;;;9.41;100.00
24031;BME280;12240;51.142;22.486;2023-05-19T00:48:50;100332.81;;;9.47;100.00
24031;BME280;12240;51.142;22.486;2023-05-19T00:51:19;100330.53;;;9.42;100.00
24031;BME280;12240;51.142;22.486;2023-05-19T00:53:47;100323.50;;;9.41;100.00
24031;BME280;12240;51.142;22.486;2023-05-19T00:56:18;100325.44;;;9.39;100.00
24031;BME280;12240;51.142;22.486;2023-05-19T00:58:50;100326.53;;;9.36;100.00
24031;BME280;12240;51.142;22.486;2023-05-19T01:01:18;100326.28;;;9.39;100.00
24031;BME280;12240;51.142;22.486;2023-05-19T01:03:49;100326.41;;;9.38;100.00
24031;BME280;12240;51.142;22.486;2023-05-19T01:06:18;100330.53;;;9.42;100.00
24031;BME280;12240;51.142;22.486;2023-05-19T01:08:53;100334.75;;;9.44;100.00
24031;BME280;12240;51.142;22.486;2023-05-19T01:11:21;100328.09;;;9.50;100.00
24031;BME280;12240;51.142;22.486;2023-05-19T01:13:50;100335.59;;;9.56;100.00
24031;BME280;12240;51.142;22.486;2023-05-19T01:16:42;100323.50;;;9.52;100.00
24031;BME280;12240;51.142;22.486;2023-05-19T01:22:38;100328.22;;;9.49;100.00
24031;BME280;12240;51.142;22.486;2023-05-19T01:30:41;100328.34;;;9.47;100.00
24031;BME280;12240;51.142;22.486;2023-05-19T01:33:13;100316.72;;;9.48;100.00
24031;BME280;12240;51.142;22.486;2023-05-19T01:35:43;100311.53;;;9.47;100.00
24031;BME280;12240;51.142;22.486;2023-05-19T01:38:16;100310.34;;;9.51;100.00
24031;BME280;12240;51.142;22.486;2023-05-19T01:40:45;100308.41;;;9.53;100.00
24031;BME280;12240;51.142;22.486;2023-05-19T01:43:20;100313.25;;;9.48;100.00
24031;BME280;12240;51.142;22.486;2023-05-19T01:45:50;100313.94;;;9.50;100.00
24031;BME280;12240;51.142;22.486;2023-05-19T01:48:19;100309.34;;;9.52;100.00
24031;BME280;12240;51.142;22.486;2023-05-19T01:50:47;100308.63;;;9.50;100.00
24031;BME280;12240;51.142;22.486;2023-05-19T01:53:16;100307.94;;;9.48;100.00
24031;BME280;12240;51.142;22.486;2023-05-19T01:55:47;100304.91;;;9.52;100.00
24031;BME280;12240;51.142;22.486;2023-05-19T01:58:44;100316.00;;;9.46;100.00
24031;BME280;12240;51.142;22.486;2023-05-19T02:02:13;100316.00;;;9.46;100.00
24031;BME280;12240;51.142;22.486;2023-05-19T02:04:59;100313.25;;;9.48;100.00
24031;BME280;12240;51.142;22.486;2023-05-19T02:07:53;100313.25;;;9.48;100.00
24031;BME280;12240;51.142;22.486;2023-05-19T02:10:28;100315.06;;;9.47;100.00
24031;BME280;12240;51.142;22.486;2023-05-19T02:13:04;100308.75;;;9.48;100.00
24031;BME280;12240;51.142;22.486;2023-05-19T02:15:39;100314.06;;;9.48;100.00
24031;BME280;12240;51.142;22.486;2023-05-19T02:18:10;100309.09;;;9.55;100.00
24031;BME280;12240;51.142;22.486;2023-05-19T02:20:39;100307.31;;;9.55;100.00
24031;BME280;12240;51.142;22.486;2023-05-19T02:23:07;100310.94;;;9.54;100.00
24031;BME280;12240;51.142;22.486;2023-05-19T02:25:36;100316.25;;;9.54;100.00
24031;BME280;12240;51.142;22.486;2023-05-19T02:28:05;100313.09;;;9.60;100.00
24031;BME280;12240;51.142;22.486;2023-05-19T02:30:33;100318.53;;;9.59;100.00
24031;BME280;12240;51.142;22.486;2023-05-19T02:33:03;100308.38;;;9.64;100.00
24031;BME280;12240;51.142;22.486;2023-05-19T02:35:33;100311.50;;;9.69;100.00
24031;BME280;12240;51.142;22.486;2023-05-19T02:38:01;100309.94;;;9.66;100.00
24031;BME280;12240;51.142;22.486;2023-05-19T02:40:30;100307.03;;;9.69;100.00
24031;BME280;12240;51.142;22.486;2023-05-19T02:42:58;100308.97;;;9.67;100.00
24031;BME280;12240;51.142;22.486;2023-05-19T02:45:26;100305.84;;;9.62;100.00
24031;BME280;12240;51.142;22.486;2023-05-19T02:47:58;100309.94;;;9.66;100.00
24031;BME280;12240;51.142;22.486;2023-05-19T02:50:26;100309.56;;;9.71;100.00
24031;BME280;12240;51.142;22.486;2023-05-19T02:52:54;100318.41;;;9.71;100.00
24031;BME280;12240;51.142;22.486;2023-05-19T02:55:22;100315.47;;;9.74;100.00
24031;BME280;12240;51.142;22.486;2023-05-19T02:57:50;100323.94;;;9.79;100.00
24031;BME280;12240;51.142;22.486;2023-05-19T03:00:19;100317.66;;;9.80;100.00
24031;BME280;12240;51.142;22.486;2023-05-19T03:02:47;100317.75;;;9.79;100.00
24031;BME280;12240;51.142;22.486;2023-05-19T03:05:16;100320.53;;;9.77;100.00
24031;BME280;12240;51.142;22.486;2023-05-19T03:07:45;100325.38;;;9.83;100.00
24031;BME280;12240;51.142;22.486;2023-05-19T03:10:13;100323.22;;;9.77;100.00
24031;BME280;12240;51.142;22.486;2023-05-19T03:12:41;100326.47;;;9.81;100.00
24031;BME280;12240;51.142;22.486;2023-05-19T03:15:10;100326.22;;;9.84;100.00
24031;BME280;12240;51.142;22.486;2023-05-19T03:17:40;100330.69;;;9.83;100.00
24031;BME280;12240;51.142;22.486;2023-05-19T03:20:09;100330.19;;;9.89;100.00
24031;BME280;12240;51.142;22.486;2023-05-19T03:22:40;100333.84;;;9.88;100.00
24031;BME280;12240;51.142;22.486;2023-05-19T03:25:09;100336.50;;;9.88;100.00
24031;BME280;12240;51.142;22.486;2023-05-19T03:27:37;100339.38;;;9.96;100.00
24031;BME280;12240;51.142;22.486;2023-05-19T03:30:06;100334.69;;;9.89;100.00
24031;BME280;12240;51.142;22.486;2023-05-19T03:32:46;100332.38;;;9.95;100.00
24031;BME280;12240;51.142;22.486;2023-05-19T03:35:15;100339.22;;;9.98;100.00
24031;BME280;12240;51.142;22.486;2023-05-19T03:37:43;100336.69;;;9.96;100.00
24031;BME280;12240;51.142;22.486;2023-05-19T03:40:11;100328.59;;;9.98;100.00
24031;BME280;12240;51.142;22.486;2023-05-19T03:42:42;100335.38;;;10.02;100.00
24031;BME280;12240;51.142;22.486;2023-05-19T03:45:11;100337.50;;;10.08;100.00
24031;BME280;12240;51.142;22.486;2023-05-19T03:47:39;100331.25;;;10.09;100.00
24031;BME280;12240;51.142;22.486;2023-05-19T03:50:45;100318.06;;;10.07;100.00
24031;BME280;12240;51.142;22.486;2023-05-19T03:53:19;100323.16;;;10.10;100.00
24031;BME280;12240;51.142;22.486;2023-05-19T03:55:49;100324.13;;;10.09;100.00
24031;BME280;12240;51.142;22.486;2023-05-19T03:58:17;100323.16;;;10.10;100.00
24031;BME280;12240;51.142;22.486;2023-05-19T04:00:45;100328.22;;;10.13;100.00
24031;BME280;12240;51.142;22.486;2023-05-19T04:03:14;100325.19;;;10.18;100.00
24031;BME280;12240;51.142;22.486;2023-05-19T04:05:42;100324.19;;;10.19;100.00
24031;BME280;12240;51.142;22.486;2023-05-19T04:08:12;100320.47;;;10.21;100.00
24031;BME280;12240;51.142;22.486;2023-05-19T04:10:40;100323.00;;;10.23;100.00
24031;BME280;12240;51.142;22.486;2023-05-19T04:13:09;100321.16;;;10.23;100.00
24031;BME280;12240;51.142;22.486;2023-05-19T04:15:41;100325.25;;;10.27;100.00
24031;BME280;12240;51.142;22.486;2023-05-19T04:18:09;100328.50;;;10.31;100.00
24031;BME280;12240;51.142;22.486;2023-05-19T04:20:40;100327.66;;;10.30;100.00
24031;BME280;12240;51.142;22.486;2023-05-19T04:23:08;100334.34;;;10.25;100.00
24031;BME280;12240;51.142;22.486;2023-05-19T04:25:37;100334.63;;;10.42;100.00
24031;BME280;12240;51.142;22.486;2023-05-19T04:28:08;100330.16;;;10.43;100.00
24031;BME280;12240;51.142;22.486;2023-05-19T04:30:37;100333.66;;;10.43;100.00
24031;BME280;12240;51.142;22.486;2023-05-19T04:33:06;100328.56;;;10.40;100.00
24031;BME280;12240;51.142;22.486;2023-05-19T04:35:35;100336.53;;;10.51;100.00
24031;BME280;12240;51.142;22.486;2023-05-19T04:38:07;100330.75;;;10.46;100.00
24031;BME280;12240;51.142;22.486;2023-05-19T04:40:37;100338.19;;;10.52;100.00
24031;BME280;12240;51.142;22.486;2023-05-19T04:43:08;100335.03;;;10.58;100.00
24031;BME280;12240;51.142;22.486;2023-05-19T04:45:39;100334.50;;;10.65;100.00
24031;BME280;12240;51.142;22.486;2023-05-19T04:48:11;100343.94;;;10.69;100.00
24031;BME280;12240;51.142;22.486;2023-05-19T04:50:42;100343.16;;;10.78;100.00
24031;BME280;12240;51.142;22.486;2023-05-19T04:53:11;100340.09;;;10.82;100.00
24031;BME280;12240;51.142;22.486;2023-05-19T04:55:42;100342.53;;;10.85;100.00
24031;BME280;12240;51.142;22.486;2023-05-19T04:58:13;100343.44;;;10.75;100.00
24031;BME280;12240;51.142;22.486;2023-05-19T05:00:45;100347.78;;;10.76;100.00
24031;BME280;12240;51.142;22.486;2023-05-19T05:03:14;100344.31;;;10.85;100.00
24031;BME280;12240;51.142;22.486;2023-05-19T05:05:44;100345.50;;;10.92;100.00
24031;BME280;12240;51.142;22.486;2023-05-19T05:08:13;100336.78;;;10.90;100.00
24031;BME280;12240;51.142;22.486;2023-05-19T05:10:43;100341.25;;;10.89;100.00
24031;BME280;12240;51.142;22.486;2023-05-19T05:13:12;100336.69;;;11.01;100.00
24031;BME280;12240;51.142;22.486;2023-05-19T05:15:40;100341.97;;;11.12;100.00
24031;BME280;12240;51.142;22.486;2023-05-19T05:18:11;100346.22;;;11.24;100.00
24031;BME280;12240;51.142;22.486;2023-05-19T05:20:44;100350.25;;;11.18;100.00
24031;BME280;12240;51.142;22.486;2023-05-19T05:23:14;100341.34;;;11.29;100.00
24031;BME280;12240;51.142;22.486;2023-05-19T05:25:46;100344.16;;;11.37;100.00
24031;BME280;12240;51.142;22.486;2023-05-19T05:28:16;100339.59;;;11.48;100.00
24031;BME280;12240;51.142;22.486;2023-05-19T05:30:47;100340.56;;;11.47;100.00
24031;BME280;12240;51.142;22.486;2023-05-19T05:33:17;100342.50;;;11.45;100.00
24031;BME280;12240;51.142;22.486;2023-05-19T05:35:46;100343.81;;;11.51;100.00
24031;BME280;12240;51.142;22.486;2023-05-19T05:38:15;100338.91;;;11.56;100.00
24031;BME280;12240;51.142;22.486;2023-05-19T05:40:43;100344.09;;;11.57;100.00
24031;BME280;12240;51.142;22.486;2023-05-19T05:43:12;100340.63;;;11.57;100.00
24031;BME280;12240;51.142;22.486;2023-05-19T05:45:46;100346.66;;;11.59;100.00
24031;BME280;12240;51.142;22.486;2023-05-19T05:48:15;100336.09;;;11.57;100.00
24031;BME280;12240;51.142;22.486;2023-05-19T05:50:44;100344.00;;;11.59;100.00
24031;BME280;12240;51.142;22.486;2023-05-19T05:53:20;100342.88;;;11.61;100.00
24031;BME280;12240;51.142;22.486;2023-05-19T05:55:52;100339.94;;;11.64;100.00
24031;BME280;12240;51.142;22.486;2023-05-19T05:58:27;100350.44;;;11.56;100.00
24031;BME280;12240;51.142;22.486;2023-05-19T06:00:58;100345.25;;;11.55;100.00
24031;BME280;12240;51.142;22.486;2023-05-19T06:03:27;100345.50;;;11.52;100.00
24031;BME280;12240;51.142;22.486;2023-05-19T06:05:59;100350.00;;;11.61;100.00
24031;BME280;12240;51.142;22.486;2023-05-19T06:08:28;100353.47;;;11.73;100.00
24031;BME280;12240;51.142;22.486;2023-05-19T06:10:57;100349.38;;;11.68;100.00
24031;BME280;12240;51.142;22.486;2023-05-19T06:13:27;100345.19;;;11.76;100.00
24031;BME280;12240;51.142;22.486;2023-05-19T06:15:56;100348.00;;;11.84;100.00
24031;BME280;12240;51.142;22.486;2023-05-19T06:18:31;100344.66;;;11.91;100.00
24031;BME280;12240;51.142;22.486;2023-05-19T06:21:00;100348.06;;;11.93;100.00
24031;BME280;12240;51.142;22.486;2023-05-19T06:23:30;100344.53;;;11.83;100.00
24031;BME280;12240;51.142;22.486;2023-05-19T06:25:59;100346.34;;;11.83;100.00
24031;BME280;12240;51.142;22.486;2023-05-19T06:28:28;100347.34;;;11.91;100.00
24031;BME280;12240;51.142;22.486;2023-05-19T06:30:57;100356.78;;;11.95;100.00
24031;BME280;12240;51.142;22.486;2023-05-19T06:33:48;100348.91;;;12.03;100.00
24031;BME280;12240;51.142;22.486;2023-05-19T06:36:16;100352.44;;;12.04;100.00
24031;BME280;12240;51.142;22.486;2023-05-19T06:38:45;100353.44;;;12.12;100.00
24031;BME280;12240;51.142;22.486;2023-05-19T06:41:13;100351.88;;;12.19;100.00
24031;BME280;12240;51.142;22.486;2023-05-19T06:43:42;100354.28;;;12.22;100.00
24031;BME280;12240;51.142;22.486;2023-05-19T06:46:13;100353.97;;;12.25;100.00
24031;BME280;12240;51.142;22.486;2023-05-19T06:48:45;100359.91;;;12.29;100.00
24031;BME280;12240;51.142;22.486;2023-05-19T06:51:13;100355.97;;;12.33;100.00
24031;BME280;12240;51.142;22.486;2023-05-19T06:53:48;100361.88;;;12.36;100.00
24031;BME280;12240;51.142;22.486;2023-05-19T06:56:17;100359.91;;;12.19;100.00
24031;BME280;12240;51.142;22.486;2023-05-19T06:58:46;100356.22;;;12.11;100.00
24031;BME280;12240;51.142;22.486;2023-05-19T07:01:14;100355.09;;;12.13;100.00
24031;BME280;12240;51.142;22.486;2023-05-19T07:03:48;100350.03;;;12.10;100.00
24031;BME280;12240;51.142;22.486;2023-05-19T07:06:17;100343.28;;;12.35;100.00
24031;BME280;12240;51.142;22.486;2023-05-19T07:08:45;100348.34;;;12.28;100.00
24031;BME280;12240;51.142;22.486;2023-05-19T07:11:14;100343.59;;;12.32;100.00
24031;BME280;12240;51.142;22.486;2023-05-19T07:13:43;100351.44;;;12.33;100.00
24031;BME280;12240;51.142;22.486;2023-05-19T07:16:14;100353.56;;;12.58;100.00
24031;BME280;12240;51.142;22.486;2023-05-19T07:18:42;100351.75;;;12.68;100.00
24031;BME280;12240;51.142;22.486;2023-05-19T07:21:11;100351.44;;;12.81;100.00
24031;BME280;12240;51.142;22.486;2023-05-19T07:23:39;100351.13;;;12.93;100.00
24031;BME280;12240;51.142;22.486;2023-05-19T07:26:08;100347.47;;;12.95;100.00
24031;BME280;12240;51.142;22.486;2023-05-19T07:28:36;100349.75;;;13.09;100.00
24031;BME280;12240;51.142;22.486;2023-05-19T07:31:09;100357.72;;;13.18;100.00
24031;BME280;12240;51.142;22.486;2023-05-19T07:33:37;100352.63;;;13.25;100.00
24031;BME280;12240;51.142;22.486;2023-05-19T07:36:05;100353.59;;;13.33;100.00
24031;BME280;12240;51.142;22.486;2023-05-19T07:38:34;100358.22;;;13.41;100.00
24031;BME280;12240;51.142;22.486;2023-05-19T07:41:03;100349.72;;;13.55;100.00
24031;BME280;12240;51.142;22.486;2023-05-19T07:43:31;100355.16;;;13.63;100.00
24031;BME280;12240;51.142;22.486;2023-05-19T07:45:59;100354.31;;;13.62;100.00
24031;BME280;12240;51.142;22.486;2023-05-19T07:48:28;100349.22;;;13.69;100.00
24031;BME280;12240;51.142;22.486;2023-05-19T07:50:56;100349.16;;;13.51;100.00
24031;BME280;12240;51.142;22.486;2023-05-19T07:53:25;100344.38;;;13.45;100.00
24031;BME280;12240;51.142;22.486;2023-05-19T07:55:54;100350.28;;;13.49;100.00
24031;BME280;12240;51.142;22.486;2023-05-19T07:58:25;100350.72;;;13.44;100.00
24031;BME280;12240;51.142;22.486;2023-05-19T08:00:57;100349.84;;;13.53;100.00
24031;BME280;12240;51.142;22.486;2023-05-19T08:03:26;100355.16;;;13.63;100.00
24031;BME280;12240;51.142;22.486;2023-05-19T08:05:55;100356.19;;;13.79;100.00
24031;BME280;12240;51.142;22.486;2023-05-19T08:08:23;100363.47;;;13.87;100.00
24031;BME280;12240;51.142;22.486;2023-05-19T08:10:51;100354.28;;;14.17;100.00
24031;BME280;12240;51.142;22.486;2023-05-19T08:13:20;100361.75;;;14.40;100.00
24031;BME280;12240;51.142;22.486;2023-05-19T08:15:48;100361.81;;;14.48;100.00
24031;BME280;12240;51.142;22.486;2023-05-19T08:18:17;100355.78;;;14.46;100.00
24031;BME280;12240;51.142;22.486;2023-05-19T08:20:45;100350.50;;;14.37;100.00
24031;BME280;12240;51.142;22.486;2023-05-19T08:23:14;100349.09;;;14.33;100.00
24031;BME280;12240;51.142;22.486;2023-05-19T08:25:43;100349.63;;;14.36;100.00
24031;BME280;12240;51.142;22.486;2023-05-19T08:28:11;100344.81;;;14.40;100.00
24031;BME280;12240;51.142;22.486;2023-05-19T08:30:39;100341.75;;;14.35;100.00
24031;BME280;12240;51.142;22.486;2023-05-19T08:33:08;100342.84;;;14.42;100.00
24031;BME280;12240;51.142;22.486;2023-05-19T08:35:36;100337.84;;;14.29;100.00
24031;BME280;12240;51.142;22.486;2023-05-19T08:38:05;100340.75;;;14.53;100.00
24031;BME280;12240;51.142;22.486;2023-05-19T08:40:34;100337.41;;;14.51;100.00
24031;BME280;12240;51.142;22.486;2023-05-19T08:43:04;100338.88;;;14.46;100.00
24031;BME280;12240;51.142;22.486;2023-05-19T08:45:32;100343.31;;;14.55;100.00
24031;BME280;12240;51.142;22.486;2023-05-19T08:48:05;100341.16;;;14.58;100.00
24031;BME280;12240;51.142;22.486;2023-05-19T08:50:39;100341.06;;;14.50;100.00
24031;BME280;12240;51.142;22.486;2023-05-19T08:53:19;100339.63;;;14.56;100.00
24031;BME280;12240;51.142;22.486;2023-05-19T08:56:19;100333.19;;;14.49;100.00
24031;BME280;12240;51.142;22.486;2023-05-19T08:58:49;100342.13;;;14.57;100.00
24031;BME280;12240;51.142;22.486;2023-05-19T09:01:19;100341.38;;;14.47;100.00
24031;BME280;12240;51.142;22.486;2023-05-19T09:03:48;100345.59;;;14.50;100.00
24031;BME280;12240;51.142;22.486;2023-05-19T09:06:17;100345.50;;;14.59;100.00
24031;BME280;12240;51.142;22.486;2023-05-19T09:08:46;100334.72;;;14.51;100.00
24031;BME280;12240;51.142;22.486;2023-05-19T09:11:14;100340.16;;;14.59;100.00
24031;BME280;12240;51.142;22.486;2023-05-19T09:13:43;100340.78;;;14.36;100.00
24031;BME280;12240;51.142;22.486;2023-05-19T09:16:11;100334.34;;;14.46;100.00
24031;BME280;12240;51.142;22.486;2023-05-19T09:18:52;100346.59;;;14.49;100.00
24031;BME280;12240;51.142;22.486;2023-05-19T09:21:31;100339.63;;;14.56;100.00
24031;BME280;12240;51.142;22.486;2023-05-19T09:24:04;100344.97;;;14.73;100.00
24031;BME280;12240;51.142;22.486;2023-05-19T09:26:41;100340.59;;;14.72;100.00
24031;BME280;12240;51.142;22.486;2023-05-19T09:29:16;100346.72;;;14.82;100.00
24031;BME280;12240;51.142;22.486;2023-05-19T09:31:53;100340.09;;;14.94;100.00
24031;BME280;12240;51.142;22.486;2023-05-19T09:34:23;100342.47;;;14.97;100.00
24031;BME280;12240;51.142;22.486;2023-05-19T09:36:52;100338.34;;;14.85;100.00
24031;BME280;12240;51.142;22.486;2023-05-19T09:39:24;100339.03;;;14.87;100.00
24031;BME280;12240;51.142;22.486;2023-05-19T09:41:54;100347.75;;;14.89;100.00
24031;BME280;12240;51.142;22.486;2023-05-19T09:44:26;100333.16;;;14.84;100.00
24031;BME280;12240;51.142;22.486;2023-05-19T09:46:58;100334.84;;;15.10;100.00
24031;BME280;12240;51.142;22.486;2023-05-19T09:49:29;100338.75;;;15.24;100.00
24031;BME280;12240;51.142;22.486;2023-05-19T09:52:01;100329.56;;;15.27;100.00
24031;BME280;12240;51.142;22.486;2023-05-19T09:54:33;100328.88;;;15.50;100.00
24031;BME280;12240;51.142;22.486;2023-05-19T09:57:03;100329.31;;;15.71;100.00
24031;BME280;12240;51.142;22.486;2023-05-19T09:59:35;100329.66;;;15.68;100.00
24031;BME280;12240;51.142;22.486;2023-05-19T10:02:15;100321.13;;;15.81;100.00
24031;BME280;12240;51.142;22.486;2023-05-19T10:04:45;100320.66;;;15.52;100.00
24031;BME280;12240;51.142;22.486;2023-05-19T10:07:15;100316.59;;;15.40;100.00
24031;BME280;12240;51.142;22.486;2023-05-19T10:09:45;100317.09;;;15.17;100.00
24031;BME280;12240;51.142;22.486;2023-05-19T10:12:14;100318.69;;;15.02;100.00
24031;BME280;12240;51.142;22.486;2023-05-19T10:14:42;100324.00;;;14.94;100.00
24031;BME280;12240;51.142;22.486;2023-05-19T10:17:11;100334.09;;;15.00;100.00
24031;BME280;12240;51.142;22.486;2023-05-19T10:19:41;100319.91;;;14.82;100.00
24031;BME280;12240;51.142;22.486;2023-05-19T10:22:10;100326.97;;;14.91;100.00
24031;BME280;12240;51.142;22.486;2023-05-19T10:24:39;100324.09;;;15.10;100.00
24031;BME280;12240;51.142;22.486;2023-05-19T10:27:10;100332.78;;;15.04;100.00
24031;BME280;12240;51.142;22.486;2023-05-19T10:29:47;100339.50;;;14.83;100.00
24031;BME280;12240;51.142;22.486;2023-05-19T10:32:21;100327.25;;;14.80;100.00
24031;BME280;12240;51.142;22.486;2023-05-19T10:46:35;100322.56;;;15.59;100.00
24031;BME280;12240;51.142;22.486;2023-05-19T10:49:07;100314.34;;;15.69;100.00
24031;BME280;12240;51.142;22.486;2023-05-19T10:51:35;100319.00;;;16.00;100.00
24031;BME280;12240;51.142;22.486;2023-05-19T10:54:07;100323.41;;;16.17;100.00
24031;BME280;12240;51.142;22.486;2023-05-19T10:56:38;100316.88;;;16.28;100.00
24031;BME280;12240;51.142;22.486;2023-05-19T10:59:33;100316.88;;;16.36;100.00
24031;BME280;12240;51.142;22.486;2023-05-19T11:02:07;100308.94;;;16.10;100.00
24031;BME280;12240;51.142;22.486;2023-05-19T11:04:49;100308.78;;;16.04;100.00
24031;BME280;12240;51.142;22.486;2023-05-19T11:07:25;100313.47;;;16.10;100.00
24031;BME280;12240;51.142;22.486;2023-05-19T11:09:55;100316.53;;;16.31;100.00
24031;BME280;12240;51.142;22.486;2023-05-19T11:12:23;100317.22;;;16.41;100.00
24031;BME280;12240;51.142;22.486;2023-05-19T11:14:53;100310.50;;;16.37;100.00
24031;BME280;12240;51.142;22.486;2023-05-19T11:17:24;100298.06;;;16.28;100.00
24031;BME280;12240;51.142;22.486;2023-05-19T11:19:56;100303.47;;;16.52;100.00
24031;BME280;12240;51.142;22.486;2023-05-19T11:22:27;100296.72;;;16.40;100.00
24031;BME280;12240;51.142;22.486;2023-05-19T11:24:57;100299.91;;;16.44;100.00
24031;BME280;12240;51.142;22.486;2023-05-19T11:27:33;100297.69;;;16.07;100.00
24031;BME280;12240;51.142;22.486;2023-05-19T11:32:35;100302.91;;;16.32;100.00
24031;BME280;12240;51.142;22.486;2023-05-19T11:35:09;100302.13;;;16.48;100.00
24031;BME280;12240;51.142;22.486;2023-05-19T11:37:38;100306.00;;;16.70;100.00
24031;BME280;12240;51.142;22.486;2023-05-19T11:40:08;100303.16;;;16.71;100.00
24031;BME280;12240;51.142;22.486;2023-05-19T11:42:36;100302.44;;;16.77;100.00
24031;BME280;12240;51.142;22.486;2023-05-19T11:45:06;100301.75;;;16.43;100.00
24031;BME280;12240;51.142;22.486;2023-05-19T11:47:34;100301.22;;;16.23;100.00
24031;BME280;12240;51.142;22.486;2023-05-19T11:50:24;100304.41;;;16.27;100.00
24031;BME280;12240;51.142;22.486;2023-05-19T11:52:54;100317.38;;;16.31;100.00
24031;BME280;12240;51.142;22.486;2023-05-19T11:55:24;100315.69;;;16.30;100.00
24031;BME280;12240;51.142;22.486;2023-05-19T12:00:39;100321.88;;;16.15;100.00
24031;BME280;12240;51.142;22.486;2023-05-19T12:03:09;100319.88;;;16.17;100.00
24031;BME280;12240;51.142;22.486;2023-05-19T12:05:44;100324.25;;;16.18;100.00
24031;BME280;12240;51.142;22.486;2023-05-19T12:08:16;100323.09;;;16.28;100.00
24031;BME280;12240;51.142;22.486;2023-05-19T12:10:50;100333.16;;;16.34;100.00
24031;BME280;12240;51.142;22.486;2023-05-19T12:13:19;100324.75;;;16.38;100.00
24031;BME280;12240;51.142;22.486;2023-05-19T12:15:52;100327.66;;;16.44;100.00
24031;BME280;12240;51.142;22.486;2023-05-19T12:18:21;100324.94;;;16.36;100.00
24031;BME280;12240;51.142;22.486;2023-05-19T12:20:50;100331.00;;;16.30;100.00
24031;BME280;12240;51.142;22.486;2023-05-19T12:23:19;100319.91;;;16.25;100.00
24031;BME280;12240;51.142;22.486;2023-05-19T12:25:47;100328.59;;;16.27;100.00
24031;BME280;12240;51.142;22.486;2023-05-19T12:28:16;100322.25;;;16.28;100.00
24031;BME280;12240;51.142;22.486;2023-05-19T12:30:48;100321.06;;;16.14;100.00
24031;BME280;12240;51.142;22.486;2023-05-19T12:33:19;100322.22;;;16.12;100.00
24031;BME280;12240;51.142;22.486;2023-05-19T12:35:49;100313.50;;;16.26;100.00
24031;BME280;12240;51.142;22.486;2023-05-19T12:38:19;100313.97;;;16.13;100.00
24031;BME280;12240;51.142;22.486;2023-05-19T12:40:49;100315.97;;;16.11;100.00
24031;BME280;12240;51.142;22.486;2023-05-19T12:43:21;100311.47;;;16.12;100.00
24031;BME280;12240;51.142;22.486;2023-05-19T12:45:50;100315.16;;;16.11;100.00
24031;BME280;12240;51.142;22.486;2023-05-19T12:48:21;100317.50;;;16.22;100.00
24031;BME280;12240;51.142;22.486;2023-05-19T12:50:53;100313.34;;;16.35;100.00
24031;BME280;12240;51.142;22.486;2023-05-19T12:53:26;100314.19;;;16.36;100.00
24031;BME280;12240;51.142;22.486;2023-05-19T12:55:55;100323.28;;;16.51;100.00
24031;BME280;12240;51.142;22.486;2023-05-19T12:58:23;100319.72;;;16.43;100.00
24031;BME280;12240;51.142;22.486;2023-05-19T13:00:57;100316.59;;;16.55;100.00
24031;BME280;12240;51.142;22.486;2023-05-19T13:03:28;100313.53;;;16.42;100.00
24031;BME280;12240;51.142;22.486;2023-05-19T13:05:56;100318.88;;;16.18;100.00
24031;BME280;12240;51.142;22.486;2023-05-19T13:08:26;100312.25;;;15.96;100.00
24031;BME280;12240;51.142;22.486;2023-05-19T13:10:55;100304.38;;;15.95;100.00
24031;BME280;12240;51.142;22.486;2023-05-19T13:13:24;100315.28;;;15.85;100.00
24031;BME280;12240;51.142;22.486;2023-05-19T13:15:52;100312.09;;;15.98;100.00
24031;BME280;12240;51.142;22.486;2023-05-19T13:18:20;100320.16;;;15.98;100.00